AXB2023 VOHS-VABB
Flight info
| Callsign | AXB2023 |
|---|---|
| Flight time | 1h 2m |
| Altitude | 36000 |
| Route | TAMIV5 APUSU W18 OPAKA EMRAK2A |
| Aircraft | B738/M-SDE2E3FGHIRWXY/LB1 |
Departure
| Time | 2026-04-25 09:50 |
|---|---|
| Airport | Rajiv Gandhi International Airport (VOHS) |
Arrival
| Time | 2026-04-25 10:53 |
|---|---|
| Airport | Chhatrapati Shivaji Maharaj International Airport (VABB) |
| Time | Latitude | Longitude | Altitude | Speed | Heading |
|---|---|---|---|---|---|
| 2026-04-25 08:57 | 17.23423 | 78.43368 | 1979 ft | 0 kts | 360° |
| 2026-04-25 08:58 | 17.23419 | 78.43368 | 1979 ft | 0 kts | 360° |
| 2026-04-25 09:24 | 17.23415 | 78.43368 | 1979 ft | 2 kts | 359° |
| 2026-04-25 09:24 | 17.23396 | 78.43370 | 1980 ft | 3 kts | 346° |
| 2026-04-25 09:25 | 17.23378 | 78.43377 | 1979 ft | 3 kts | 321° |
| 2026-04-25 09:25 | 17.23367 | 78.43391 | 1981 ft | 3 kts | 284° |
| 2026-04-25 09:25 | 17.23365 | 78.43401 | 1981 ft | 0 kts | 269° |
| 2026-04-25 09:25 | 17.23365 | 78.43386 | 1983 ft | 2 kts | 269° |
| 2026-04-25 09:26 | 17.23365 | 78.43379 | 1982 ft | 0 kts | 269° |
| 2026-04-25 09:29 | 17.23365 | 78.43378 | 1982 ft | 1 kts | 269° |
| 2026-04-25 09:29 | 17.23365 | 78.43361 | 1979 ft | 4 kts | 269° |
| 2026-04-25 09:29 | 17.23364 | 78.43325 | 1979 ft | 5 kts | 269° |
| 2026-04-25 09:30 | 17.23364 | 78.43287 | 1980 ft | 5 kts | 269° |
| 2026-04-25 09:30 | 17.23364 | 78.43249 | 1980 ft | 6 kts | 271° |
| 2026-04-25 09:30 | 17.23362 | 78.43190 | 1979 ft | 10 kts | 256° |
| 2026-04-25 09:30 | 17.23308 | 78.43160 | 1981 ft | 10 kts | 180° |
| 2026-04-25 09:31 | 17.23245 | 78.43160 | 1979 ft | 8 kts | 179° |
| 2026-04-25 09:31 | 17.23213 | 78.43161 | 1980 ft | 6 kts | 179° |
| 2026-04-25 09:31 | 17.23197 | 78.43161 | 1980 ft | 0 kts | 179° |
| 2026-04-25 09:32 | 17.23195 | 78.43161 | 1979 ft | 1 kts | 179° |
| 2026-04-25 09:32 | 17.23162 | 78.43162 | 1979 ft | 8 kts | 179° |
| 2026-04-25 09:32 | 17.23104 | 78.43170 | 1979 ft | 9 kts | 147° |
| 2026-04-25 09:32 | 17.23085 | 78.43258 | 1980 ft | 16 kts | 87° |
| 2026-04-25 09:33 | 17.23088 | 78.43376 | 1978 ft | 16 kts | 89° |
| 2026-04-25 09:33 | 17.23088 | 78.43490 | 1978 ft | 15 kts | 89° |
| 2026-04-25 09:33 | 17.23091 | 78.43622 | 1979 ft | 20 kts | 88° |
| 2026-04-25 09:33 | 17.23093 | 78.43765 | 1979 ft | 19 kts | 90° |
| 2026-04-25 09:34 | 17.23094 | 78.43904 | 1979 ft | 19 kts | 89° |
| 2026-04-25 09:34 | 17.23096 | 78.44032 | 1980 ft | 14 kts | 89° |
| 2026-04-25 09:34 | 17.23097 | 78.44076 | 1980 ft | 6 kts | 89° |
| 2026-04-25 09:34 | 17.23098 | 78.44132 | 1983 ft | 9 kts | 89° |
| 2026-04-25 09:35 | 17.23099 | 78.44199 | 1983 ft | 9 kts | 89° |
| 2026-04-25 09:35 | 17.23100 | 78.44247 | 1981 ft | 0 kts | 89° |
| 2026-04-25 09:40 | 17.23100 | 78.44257 | 1982 ft | 8 kts | 89° |
| 2026-04-25 09:40 | 17.23049 | 78.44304 | 1980 ft | 7 kts | 181° |
| 2026-04-25 09:40 | 17.23022 | 78.44304 | 1980 ft | 0 kts | 179° |
| 2026-04-25 09:47 | 17.23003 | 78.44304 | 1982 ft | 4 kts | 179° |
| 2026-04-25 09:47 | 17.22965 | 78.44304 | 1980 ft | 7 kts | 179° |
| 2026-04-25 09:47 | 17.22916 | 78.44305 | 1979 ft | 7 kts | 179° |
| 2026-04-25 09:48 | 17.22897 | 78.44268 | 1979 ft | 3 kts | 269° |
| 2026-04-25 09:49 | 17.22897 | 78.44264 | 1979 ft | 3 kts | 269° |
| 2026-04-25 09:49 | 17.22895 | 78.44058 | 1980 ft | 65 kts | 269° |
| 2026-04-25 09:49 | 17.22886 | 78.43328 | 1980 ft | 134 kts | 269° |
| 2026-04-25 09:50 | 17.22881 | 78.42166 | 2173 ft | 172 kts | 270° |
| 2026-04-25 09:50 | 17.22867 | 78.40882 | 2850 ft | 186 kts | 268° |
| 2026-04-25 09:50 | 17.22856 | 78.39522 | 3584 ft | 189 kts | 268° |
| 2026-04-25 09:50 | 17.22842 | 78.38095 | 4219 ft | 206 kts | 269° |
| 2026-04-25 09:51 | 17.22807 | 78.36532 | 4724 ft | 223 kts | 269° |
| 2026-04-25 09:51 | 17.22783 | 78.34897 | 5390 ft | 222 kts | 269° |
| 2026-04-25 09:51 | 17.22748 | 78.33282 | 6031 ft | 233 kts | 270° |
| 2026-04-25 09:51 | 17.22925 | 78.31461 | 6162 ft | 267 kts | 284° |
| 2026-04-25 09:52 | 17.23469 | 78.29504 | 6505 ft | 291 kts | 288° |
| 2026-04-25 09:52 | 17.24095 | 78.27464 | 7242 ft | 295 kts | 289° |
| 2026-04-25 09:52 | 17.24736 | 78.25429 | 8167 ft | 295 kts | 289° |
| 2026-04-25 09:52 | 17.25367 | 78.23382 | 9076 ft | 296 kts | 288° |
| 2026-04-25 09:53 | 17.25990 | 78.21319 | 9928 ft | 300 kts | 288° |
| 2026-04-25 09:53 | 17.26621 | 78.19198 | 10497 ft | 313 kts | 288° |
| 2026-04-25 09:53 | 17.27281 | 78.16965 | 10750 ft | 336 kts | 288° |
| 2026-04-25 09:53 | 17.27984 | 78.14569 | 11165 ft | 351 kts | 288° |
| 2026-04-25 09:54 | 17.28701 | 78.12112 | 11917 ft | 354 kts | 288° |
| 2026-04-25 09:54 | 17.29419 | 78.09642 | 12793 ft | 355 kts | 288° |
| 2026-04-25 09:54 | 17.30142 | 78.07153 | 13518 ft | 360 kts | 287° |
| 2026-04-25 09:54 | 17.30876 | 78.04626 | 14206 ft | 365 kts | 287° |
| 2026-04-25 09:55 | 17.31614 | 78.02080 | 14947 ft | 366 kts | 287° |
| 2026-04-25 09:55 | 17.32351 | 77.99539 | 15792 ft | 364 kts | 287° |
| 2026-04-25 09:55 | 17.33084 | 77.97010 | 16605 ft | 363 kts | 286° |
| 2026-04-25 09:55 | 17.33822 | 77.94461 | 17250 ft | 367 kts | 286° |
| 2026-04-25 09:56 | 17.34564 | 77.91898 | 17963 ft | 369 kts | 286° |
| 2026-04-25 09:56 | 17.35310 | 77.89321 | 18593 ft | 371 kts | 286° |
| 2026-04-25 09:56 | 17.36061 | 77.86724 | 19148 ft | 374 kts | 285° |
| 2026-04-25 09:56 | 17.36818 | 77.84102 | 19702 ft | 378 kts | 285° |
| 2026-04-25 09:57 | 17.37582 | 77.81459 | 20237 ft | 381 kts | 285° |
| 2026-04-25 09:57 | 17.38353 | 77.78791 | 20798 ft | 384 kts | 284° |
| 2026-04-25 09:57 | 17.39118 | 77.76137 | 21344 ft | 387 kts | 284° |
| 2026-04-25 09:57 | 17.39900 | 77.73428 | 21869 ft | 390 kts | 284° |
| 2026-04-25 09:58 | 17.40687 | 77.70696 | 22394 ft | 393 kts | 283° |
| 2026-04-25 09:58 | 17.41480 | 77.67944 | 22903 ft | 396 kts | 283° |
| 2026-04-25 09:58 | 17.42279 | 77.65171 | 23428 ft | 399 kts | 283° |
| 2026-04-25 09:58 | 17.43083 | 77.62378 | 23844 ft | 402 kts | 283° |
| 2026-04-25 09:59 | 17.43878 | 77.59557 | 24289 ft | 402 kts | 280° |
| 2026-04-25 09:59 | 17.44398 | 77.56689 | 24755 ft | 400 kts | 275° |
| 2026-04-25 09:59 | 17.44766 | 77.53799 | 25210 ft | 400 kts | 273° |
| 2026-04-25 09:59 | 17.45092 | 77.50894 | 25654 ft | 401 kts | 273° |
| 2026-04-25 10:00 | 17.45416 | 77.47985 | 26089 ft | 403 kts | 273° |
| 2026-04-25 10:00 | 17.45748 | 77.45100 | 26513 ft | 405 kts | 273° |
| 2026-04-25 10:00 | 17.46099 | 77.42172 | 26928 ft | 406 kts | 273° |
| 2026-04-25 10:00 | 17.46461 | 77.39231 | 27345 ft | 408 kts | 273° |
| 2026-04-25 10:01 | 17.46832 | 77.36275 | 27744 ft | 409 kts | 273° |
| 2026-04-25 10:01 | 17.47208 | 77.33310 | 28127 ft | 411 kts | 273° |
| 2026-04-25 10:01 | 17.47586 | 77.30339 | 28506 ft | 412 kts | 273° |
| 2026-04-25 10:01 | 17.47964 | 77.27361 | 28875 ft | 414 kts | 273° |
| 2026-04-25 10:02 | 17.48344 | 77.24372 | 29246 ft | 415 kts | 273° |
| 2026-04-25 10:02 | 17.48725 | 77.21369 | 29592 ft | 416 kts | 273° |
| 2026-04-25 10:02 | 17.49106 | 77.18354 | 29936 ft | 418 kts | 273° |
| 2026-04-25 10:02 | 17.49484 | 77.15366 | 30222 ft | 420 kts | 273° |
| 2026-04-25 10:03 | 17.49868 | 77.12320 | 30486 ft | 422 kts | 273° |
| 2026-04-25 10:03 | 17.50252 | 77.09269 | 30805 ft | 422 kts | 272° |
| 2026-04-25 10:03 | 17.50637 | 77.06223 | 31218 ft | 420 kts | 272° |
| 2026-04-25 10:03 | 17.51019 | 77.03195 | 31646 ft | 418 kts | 272° |
| 2026-04-25 10:04 | 17.51397 | 77.00185 | 32017 ft | 417 kts | 272° |
| 2026-04-25 10:04 | 17.51774 | 76.97173 | 32377 ft | 417 kts | 272° |
| 2026-04-25 10:04 | 17.52151 | 76.94168 | 32766 ft | 416 kts | 272° |
| 2026-04-25 10:04 | 17.52525 | 76.91171 | 33161 ft | 414 kts | 272° |
| 2026-04-25 10:05 | 17.52899 | 76.88183 | 33549 ft | 413 kts | 272° |
| 2026-04-25 10:05 | 17.53271 | 76.85201 | 33918 ft | 412 kts | 271° |
| 2026-04-25 10:05 | 17.53641 | 76.82227 | 34246 ft | 411 kts | 271° |
| 2026-04-25 10:05 | 17.54005 | 76.79301 | 34569 ft | 410 kts | 272° |
| 2026-04-25 10:06 | 17.54373 | 76.76345 | 34893 ft | 408 kts | 272° |
| 2026-04-25 10:06 | 17.54738 | 76.73400 | 35195 ft | 408 kts | 272° |
| 2026-04-25 10:06 | 17.55376 | 76.70488 | 35470 ft | 418 kts | 286° |
| 2026-04-25 10:06 | 17.56814 | 76.67802 | 35781 ft | 429 kts | 300° |
| 2026-04-25 10:07 | 17.58869 | 76.65470 | 35872 ft | 447 kts | 315° |
| 2026-04-25 10:07 | 17.61549 | 76.63723 | 35940 ft | 457 kts | 324° |
| 2026-04-25 10:07 | 17.67233 | 76.60687 | 35914 ft | 457 kts | 326° |
| 2026-04-25 10:08 | 17.72907 | 76.57711 | 35902 ft | 454 kts | 325° |
| 2026-04-25 10:08 | 17.78512 | 76.54691 | 35916 ft | 451 kts | 325° |
| 2026-04-25 10:09 | 17.84076 | 76.51655 | 35913 ft | 450 kts | 324° |
| 2026-04-25 10:09 | 17.89596 | 76.48638 | 35919 ft | 450 kts | 324° |
| 2026-04-25 10:10 | 17.95167 | 76.45596 | 35910 ft | 452 kts | 324° |
| 2026-04-25 10:10 | 18.00713 | 76.42478 | 35902 ft | 447 kts | 318° |
| 2026-04-25 10:11 | 18.03095 | 76.40466 | 35927 ft | 434 kts | 307° |
| 2026-04-25 10:11 | 18.05070 | 76.38099 | 35919 ft | 426 kts | 298° |
| 2026-04-25 10:11 | 18.08099 | 76.32834 | 35915 ft | 420 kts | 292° |
| 2026-04-25 10:12 | 18.10995 | 76.27523 | 35911 ft | 423 kts | 292° |
| 2026-04-25 10:13 | 18.15425 | 76.19482 | 35911 ft | 425 kts | 292° |
| 2026-04-25 10:13 | 18.18406 | 76.14105 | 35910 ft | 426 kts | 292° |
| 2026-04-25 10:14 | 18.21395 | 76.08716 | 35913 ft | 427 kts | 292° |
| 2026-04-25 10:14 | 18.24383 | 76.03326 | 35905 ft | 426 kts | 292° |
| 2026-04-25 10:15 | 18.27366 | 75.97939 | 35908 ft | 425 kts | 292° |
| 2026-04-25 10:15 | 18.30338 | 75.92566 | 35909 ft | 424 kts | 292° |
| 2026-04-25 10:16 | 18.33305 | 75.87198 | 35900 ft | 423 kts | 292° |
| 2026-04-25 10:16 | 18.36259 | 75.81847 | 35904 ft | 422 kts | 292° |
| 2026-04-25 10:17 | 18.39184 | 75.76546 | 35901 ft | 420 kts | 292° |
| 2026-04-25 10:17 | 18.42117 | 75.71225 | 35903 ft | 419 kts | 292° |
| 2026-04-25 10:18 | 18.45037 | 75.65923 | 35895 ft | 418 kts | 292° |
| 2026-04-25 10:18 | 18.47954 | 75.60623 | 35901 ft | 417 kts | 292° |
| 2026-04-25 10:19 | 18.50859 | 75.55337 | 35895 ft | 416 kts | 292° |
| 2026-04-25 10:19 | 18.53741 | 75.50090 | 35889 ft | 416 kts | 292° |
| 2026-04-25 10:20 | 18.56641 | 75.44806 | 35890 ft | 417 kts | 292° |
| 2026-04-25 10:20 | 18.59545 | 75.39510 | 35888 ft | 417 kts | 292° |
| 2026-04-25 10:21 | 18.62452 | 75.34206 | 35885 ft | 418 kts | 292° |
| 2026-04-25 10:21 | 18.65360 | 75.28893 | 35884 ft | 418 kts | 292° |
| 2026-04-25 10:22 | 18.68268 | 75.23578 | 35885 ft | 419 kts | 292° |
| 2026-04-25 10:22 | 18.71163 | 75.18290 | 35862 ft | 406 kts | 292° |
| 2026-04-25 10:22 | 18.72556 | 75.15758 | 35860 ft | 392 kts | 292° |
| 2026-04-25 10:23 | 18.73900 | 75.13311 | 35844 ft | 379 kts | 291° |
| 2026-04-25 10:23 | 18.75204 | 75.10929 | 35674 ft | 371 kts | 291° |
| 2026-04-25 10:23 | 18.76485 | 75.08579 | 35332 ft | 368 kts | 291° |
| 2026-04-25 10:23 | 18.77772 | 75.06201 | 34431 ft | 381 kts | 291° |
| 2026-04-25 10:24 | 18.79111 | 75.03707 | 33348 ft | 398 kts | 291° |
| 2026-04-25 10:24 | 18.80492 | 75.01152 | 32711 ft | 401 kts | 292° |
| 2026-04-25 10:24 | 18.81882 | 74.98601 | 32218 ft | 400 kts | 292° |
| 2026-04-25 10:24 | 18.83267 | 74.96067 | 31826 ft | 397 kts | 292° |
| 2026-04-25 10:25 | 18.84624 | 74.93584 | 31439 ft | 393 kts | 292° |
| 2026-04-25 10:25 | 18.85984 | 74.91093 | 31064 ft | 390 kts | 293° |
| 2026-04-25 10:25 | 18.87331 | 74.88622 | 30699 ft | 387 kts | 293° |
| 2026-04-25 10:25 | 18.88667 | 74.86167 | 30342 ft | 383 kts | 293° |
| 2026-04-25 10:26 | 18.89988 | 74.83738 | 29985 ft | 380 kts | 293° |
| 2026-04-25 10:26 | 18.91299 | 74.81323 | 29569 ft | 377 kts | 294° |
| 2026-04-25 10:26 | 18.92597 | 74.78933 | 29215 ft | 373 kts | 294° |
| 2026-04-25 10:26 | 18.93883 | 74.76564 | 28834 ft | 369 kts | 294° |
| 2026-04-25 10:27 | 18.95156 | 74.74216 | 28459 ft | 367 kts | 294° |
| 2026-04-25 10:27 | 18.96420 | 74.71884 | 28098 ft | 365 kts | 295° |
| 2026-04-25 10:27 | 18.97258 | 74.70337 | 27844 ft | 368 kts | 295° |
| 2026-04-25 10:27 | 18.98538 | 74.67967 | 27477 ft | 374 kts | 295° |
| 2026-04-25 10:28 | 19.00262 | 74.64782 | 26944 ft | 372 kts | 296° |
| 2026-04-25 10:28 | 19.01109 | 74.63218 | 26710 ft | 370 kts | 296° |
| 2026-04-25 10:28 | 19.02384 | 74.60864 | 26329 ft | 367 kts | 296° |
| 2026-04-25 10:28 | 19.04060 | 74.57769 | 25840 ft | 364 kts | 296° |
| 2026-04-25 10:29 | 19.04909 | 74.56201 | 25594 ft | 363 kts | 297° |
| 2026-04-25 10:29 | 19.06139 | 74.53927 | 25364 ft | 359 kts | 297° |
| 2026-04-25 10:29 | 19.07377 | 74.51637 | 25129 ft | 359 kts | 297° |
| 2026-04-25 10:29 | 19.08624 | 74.49325 | 24958 ft | 365 kts | 297° |
| 2026-04-25 10:30 | 19.09885 | 74.46989 | 24920 ft | 368 kts | 297° |
| 2026-04-25 10:30 | 19.11159 | 74.44628 | 24897 ft | 370 kts | 297° |
| 2026-04-25 10:30 | 19.12433 | 74.42266 | 24890 ft | 369 kts | 297° |
| 2026-04-25 10:30 | 19.13697 | 74.39926 | 24760 ft | 363 kts | 298° |
| 2026-04-25 10:31 | 19.14945 | 74.37614 | 24416 ft | 362 kts | 298° |
| 2026-04-25 10:31 | 19.16193 | 74.35298 | 23971 ft | 363 kts | 298° |
| 2026-04-25 10:31 | 19.17446 | 74.32971 | 23526 ft | 365 kts | 298° |
| 2026-04-25 10:31 | 19.18701 | 74.30640 | 23085 ft | 364 kts | 298° |
| 2026-04-25 10:32 | 19.19954 | 74.28314 | 22706 ft | 361 kts | 298° |
| 2026-04-25 10:32 | 19.21194 | 74.26010 | 22315 ft | 358 kts | 299° |
| 2026-04-25 10:32 | 19.22419 | 74.23734 | 21841 ft | 355 kts | 299° |
| 2026-04-25 10:32 | 19.23638 | 74.21467 | 21295 ft | 354 kts | 299° |
| 2026-04-25 10:33 | 19.24856 | 74.19201 | 20783 ft | 355 kts | 299° |
| 2026-04-25 10:33 | 19.26059 | 74.16964 | 20433 ft | 353 kts | 299° |
| 2026-04-25 10:33 | 19.27253 | 74.14716 | 20197 ft | 347 kts | 299° |
| 2026-04-25 10:33 | 19.28419 | 74.12490 | 19975 ft | 343 kts | 299° |
| 2026-04-25 10:34 | 19.29562 | 74.10300 | 19903 ft | 336 kts | 299° |
| 2026-04-25 10:34 | 19.30695 | 74.08122 | 19902 ft | 342 kts | 299° |
| 2026-04-25 10:34 | 19.31856 | 74.05884 | 19906 ft | 350 kts | 299° |
| 2026-04-25 10:34 | 19.33032 | 74.03615 | 19894 ft | 352 kts | 299° |
| 2026-04-25 10:35 | 19.34204 | 74.01348 | 19884 ft | 349 kts | 299° |
| 2026-04-25 10:35 | 19.35243 | 73.99034 | 19866 ft | 348 kts | 287° |
| 2026-04-25 10:35 | 19.35804 | 73.96551 | 19885 ft | 346 kts | 281° |
| 2026-04-25 10:35 | 19.36247 | 73.94042 | 19879 ft | 346 kts | 280° |
| 2026-04-25 10:36 | 19.36665 | 73.91528 | 19879 ft | 347 kts | 280° |
| 2026-04-25 10:36 | 19.37076 | 73.89007 | 19873 ft | 345 kts | 280° |
| 2026-04-25 10:36 | 19.37417 | 73.86513 | 19862 ft | 341 kts | 274° |
| 2026-04-25 10:36 | 19.37495 | 73.84008 | 19873 ft | 340 kts | 271° |
| 2026-04-25 10:37 | 19.37507 | 73.81510 | 19863 ft | 337 kts | 270° |
| 2026-04-25 10:37 | 19.37506 | 73.79037 | 19861 ft | 335 kts | 270° |
| 2026-04-25 10:37 | 19.37502 | 73.76568 | 19862 ft | 336 kts | 270° |
| 2026-04-25 10:37 | 19.37494 | 73.74090 | 19858 ft | 337 kts | 270° |
| 2026-04-25 10:38 | 19.37485 | 73.71638 | 19856 ft | 337 kts | 270° |
| 2026-04-25 10:38 | 19.37476 | 73.69149 | 19846 ft | 338 kts | 270° |
| 2026-04-25 10:38 | 19.37468 | 73.66659 | 19845 ft | 338 kts | 270° |
| 2026-04-25 10:38 | 19.37458 | 73.64167 | 19693 ft | 339 kts | 270° |
| 2026-04-25 10:39 | 19.37448 | 73.61647 | 19143 ft | 347 kts | 270° |
| 2026-04-25 10:39 | 19.37436 | 73.59070 | 18601 ft | 352 kts | 270° |
| 2026-04-25 10:39 | 19.37422 | 73.56451 | 18096 ft | 356 kts | 270° |
| 2026-04-25 10:39 | 19.37407 | 73.53830 | 17689 ft | 353 kts | 270° |
| 2026-04-25 10:40 | 19.37391 | 73.51259 | 17206 ft | 347 kts | 270° |
| 2026-04-25 10:40 | 19.37375 | 73.48709 | 16474 ft | 348 kts | 270° |
| 2026-04-25 10:40 | 19.37358 | 73.46149 | 15808 ft | 347 kts | 270° |
| 2026-04-25 10:40 | 19.37342 | 73.43594 | 15105 ft | 347 kts | 270° |
| 2026-04-25 10:41 | 19.37328 | 73.41045 | 14569 ft | 343 kts | 270° |
| 2026-04-25 10:41 | 19.37316 | 73.38536 | 13993 ft | 340 kts | 270° |
| 2026-04-25 10:41 | 19.37308 | 73.36037 | 13363 ft | 338 kts | 270° |
| 2026-04-25 10:41 | 19.37304 | 73.33589 | 12769 ft | 335 kts | 270° |
| 2026-04-25 10:42 | 19.37302 | 73.31131 | 12140 ft | 332 kts | 270° |
| 2026-04-25 10:42 | 19.37303 | 73.28685 | 11532 ft | 331 kts | 270° |
| 2026-04-25 10:42 | 19.37306 | 73.26263 | 10976 ft | 327 kts | 270° |
| 2026-04-25 10:42 | 19.37311 | 73.23853 | 10398 ft | 326 kts | 270° |
| 2026-04-25 10:43 | 19.37307 | 73.21474 | 10059 ft | 316 kts | 266° |
| 2026-04-25 10:43 | 19.36772 | 73.19309 | 9917 ft | 298 kts | 238° |
| 2026-04-25 10:43 | 19.35371 | 73.17782 | 9566 ft | 287 kts | 206° |
| 2026-04-25 10:43 | 19.33500 | 73.17218 | 9220 ft | 279 kts | 184° |
| 2026-04-25 10:44 | 19.31569 | 73.17086 | 8820 ft | 277 kts | 180° |
| 2026-04-25 10:44 | 19.29643 | 73.17013 | 8350 ft | 278 kts | 180° |
| 2026-04-25 10:44 | 19.27726 | 73.16952 | 8080 ft | 273 kts | 180° |
| 2026-04-25 10:44 | 19.25874 | 73.16899 | 7992 ft | 259 kts | 180° |
| 2026-04-25 10:45 | 19.24135 | 73.16847 | 7895 ft | 241 kts | 180° |
| 2026-04-25 10:45 | 19.22490 | 73.16795 | 7593 ft | 233 kts | 180° |
| 2026-04-25 10:45 | 19.20899 | 73.16747 | 7316 ft | 225 kts | 180° |
| 2026-04-25 10:45 | 19.19357 | 73.16699 | 7000 ft | 219 kts | 180° |
| 2026-04-25 10:46 | 19.17850 | 73.16655 | 6674 ft | 215 kts | 180° |
| 2026-04-25 10:46 | 19.16383 | 73.16615 | 6360 ft | 212 kts | 180° |
| 2026-04-25 10:46 | 19.14909 | 73.16526 | 5994 ft | 213 kts | 193° |
| 2026-04-25 10:46 | 19.13692 | 73.15698 | 5652 ft | 208 kts | 232° |
| 2026-04-25 10:47 | 19.12904 | 73.14432 | 5415 ft | 206 kts | 239° |
| 2026-04-25 10:47 | 19.12141 | 73.13121 | 5034 ft | 212 kts | 240° |
| 2026-04-25 10:47 | 19.11365 | 73.11801 | 4690 ft | 212 kts | 240° |
| 2026-04-25 10:47 | 19.10570 | 73.10478 | 4301 ft | 214 kts | 239° |
| 2026-04-25 10:48 | 19.09765 | 73.09164 | 3896 ft | 211 kts | 241° |
| 2026-04-25 10:48 | 19.09329 | 73.07739 | 3561 ft | 199 kts | 271° |
| 2026-04-25 10:48 | 19.09227 | 73.06291 | 3277 ft | 196 kts | 269° |
| 2026-04-25 10:48 | 19.09150 | 73.04883 | 3041 ft | 188 kts | 272° |
| 2026-04-25 10:49 | 19.09114 | 73.03515 | 2795 ft | 185 kts | 274° |
| 2026-04-25 10:49 | 19.09095 | 73.02163 | 2593 ft | 184 kts | 273° |
| 2026-04-25 10:49 | 19.09074 | 73.00823 | 2360 ft | 183 kts | 273° |
| 2026-04-25 10:49 | 19.09053 | 72.99497 | 2128 ft | 178 kts | 274° |
| 2026-04-25 10:50 | 19.09034 | 72.98201 | 1900 ft | 175 kts | 273° |
| 2026-04-25 10:50 | 19.09016 | 72.96926 | 1699 ft | 171 kts | 274° |
| 2026-04-25 10:50 | 19.08998 | 72.95674 | 1483 ft | 167 kts | 272° |
| 2026-04-25 10:50 | 19.08980 | 72.94489 | 1297 ft | 154 kts | 272° |
| 2026-04-25 10:51 | 19.08964 | 72.93382 | 1102 ft | 150 kts | 274° |
| 2026-04-25 10:51 | 19.08949 | 72.92293 | 898 ft | 143 kts | 273° |
| 2026-04-25 10:51 | 19.08935 | 72.91251 | 743 ft | 142 kts | 270° |
| 2026-04-25 10:51 | 19.08918 | 72.90190 | 521 ft | 144 kts | 270° |
| 2026-04-25 10:52 | 19.08906 | 72.89171 | 336 ft | 136 kts | 272° |
| 2026-04-25 10:52 | 19.08890 | 72.88142 | 195 ft | 145 kts | 271° |
| 2026-04-25 10:52 | 19.08873 | 72.87064 | 54 ft | 142 kts | 271° |
| 2026-04-25 10:52 | 19.08864 | 72.86146 | 46 ft | 107 kts | 269° |
| 2026-04-25 10:53 | 19.08865 | 72.85721 | 48 ft | 21 kts | 279° |
| 2026-04-25 10:53 | 19.08912 | 72.85577 | 45 ft | 20 kts | 294° |
| 2026-04-25 10:53 | 19.08985 | 72.85481 | 48 ft | 16 kts | 352° |
| 2026-04-25 10:53 | 19.09027 | 72.85540 | 48 ft | 11 kts | 97° |
| 2026-04-25 10:54 | 19.09017 | 72.85621 | 48 ft | 11 kts | 97° |
| 2026-04-25 10:54 | 19.09021 | 72.85674 | 48 ft | 11 kts | 82° |
| 2026-04-25 10:54 | 19.09029 | 72.85778 | 48 ft | 10 kts | 87° |
| 2026-04-25 10:54 | 19.09031 | 72.85853 | 48 ft | 10 kts | 90° |
| 2026-04-25 10:55 | 19.09031 | 72.85926 | 48 ft | 10 kts | 90° |